createdAt,value
2023-02-27T00:00:20.231Z,80.68
2023-02-27T00:02:50.015Z,81.01
2023-02-27T00:05:17.544Z,80.60
2023-02-27T00:07:44.472Z,80.17
2023-02-27T00:10:14.341Z,80.72
2023-02-27T00:12:41.372Z,80.44
2023-02-27T00:15:15.295Z,81.54
2023-02-27T00:17:42.454Z,81.13
2023-02-27T00:20:12.774Z,81.20
2023-02-27T00:22:40.768Z,81.73
2023-02-27T00:25:07.895Z,80.10
2023-02-27T00:27:35.313Z,80.68
2023-02-27T00:30:02.069Z,80.66
2023-02-27T00:32:30.069Z,80.54
2023-02-27T00:34:56.803Z,80.51
2023-02-27T00:37:23.498Z,81.23
2023-02-27T00:39:50.421Z,81.71
2023-02-27T00:42:17.067Z,81.78
2023-02-27T00:44:43.662Z,81.08
2023-02-27T00:47:10.191Z,81.36
2023-02-27T00:49:39.297Z,81.13
2023-02-27T00:52:05.923Z,82.13
2023-02-27T00:54:34.768Z,81.75
2023-02-27T00:57:01.372Z,81.84
2023-02-27T00:59:28.576Z,82.56
2023-02-27T01:01:54.980Z,83.17
2023-02-27T01:04:21.683Z,82.79
2023-02-27T01:06:48.094Z,82.33
2023-02-27T01:09:14.586Z,81.20
2023-02-27T01:11:41.000Z,81.21
2023-02-27T01:14:07.505Z,82.28
2023-02-27T01:16:34.040Z,82.26
2023-02-27T01:19:00.569Z,83.25
2023-02-27T01:21:27.395Z,83.09
2023-02-27T01:23:54.073Z,82.12
2023-02-27T01:26:20.778Z,82.80
2023-02-27T01:28:47.803Z,84.02
2023-02-27T01:31:14.902Z,83.58
2023-02-27T01:33:41.435Z,85.51
2023-02-27T01:36:08.435Z,83.34
2023-02-27T01:38:35.118Z,83.89
2023-02-27T01:41:04.336Z,82.50
2023-02-27T01:43:32.256Z,82.03
2023-02-27T01:46:00.549Z,82.81
2023-02-27T01:48:34.265Z,82.95
2023-02-27T01:51:07.210Z,82.85
2023-02-27T01:53:36.391Z,82.54
2023-02-27T01:56:18.437Z,81.70
2023-02-27T01:58:47.634Z,80.68
2023-02-27T02:01:15.230Z,80.77
2023-02-27T02:03:48.424Z,81.48
2023-02-27T02:06:15.583Z,80.41
2023-02-27T02:08:45.016Z,81.45
2023-02-27T02:11:13.287Z,81.23
2023-02-27T02:13:41.025Z,79.87
2023-02-27T02:16:32.960Z,80.50
2023-02-27T02:19:05.315Z,80.62
2023-02-27T02:21:43.613Z,82.28
2023-02-27T02:24:45.521Z,81.69
2023-02-27T02:27:33.234Z,82.72
2023-02-27T02:30:37.251Z,83.14
2023-02-27T02:33:22.731Z,82.09
2023-02-27T02:36:10.927Z,83.18
2023-02-27T02:39:25.337Z,81.57
2023-02-27T02:42:31.985Z,82.58
2023-02-27T02:45:33.215Z,82.89
2023-02-27T02:48:42.841Z,81.97
2023-02-27T02:51:47.717Z,82.90
2023-02-27T02:54:21.337Z,82.41
2023-02-27T02:56:53.861Z,82.70
2023-02-27T02:59:27.902Z,82.87
2023-02-27T03:02:18.467Z,83.25
2023-02-27T03:05:05.417Z,82.85
2023-02-27T03:07:48.111Z,81.94
2023-02-27T03:10:20.956Z,83.02
2023-02-27T03:12:54.736Z,82.64
2023-02-27T03:15:36.776Z,82.05
2023-02-27T03:18:08.493Z,82.64
2023-02-27T03:20:43.366Z,82.25
2023-02-27T03:23:21.884Z,82.25
2023-02-27T03:25:50.735Z,81.89
2023-02-27T03:28:23.648Z,82.10
2023-02-27T03:31:00.990Z,81.63
2023-02-27T03:33:35.690Z,81.13
2023-02-27T03:36:12.449Z,80.52
2023-02-27T03:38:54.954Z,80.57
2023-02-27T03:41:29.052Z,82.00
2023-02-27T03:44:14.561Z,82.54
2023-02-27T03:46:41.214Z,82.48
2023-02-27T03:49:07.919Z,80.79
2023-02-27T03:51:35.149Z,79.24
2023-02-27T03:54:13.698Z,79.43
2023-02-27T03:57:05.098Z,78.89
2023-02-27T03:59:33.338Z,79.24
2023-02-27T04:02:02.724Z,80.83
2023-02-27T04:04:32.769Z,80.36
2023-02-27T04:07:40.457Z,79.16
2023-02-27T04:10:45.515Z,79.12
2023-02-27T04:13:18.302Z,78.66
2023-02-27T04:16:06.569Z,78.41
2023-02-27T04:19:04.812Z,77.78
2023-02-27T04:21:57.120Z,76.91
2023-02-27T04:24:42.595Z,78.49
2023-02-27T04:27:32.400Z,76.92
2023-02-27T04:30:20.803Z,77.77
2023-02-27T04:33:24.359Z,77.34
2023-02-27T04:35:55.334Z,77.57
2023-02-27T04:38:35.750Z,76.58
2023-02-27T04:41:15.046Z,76.92
2023-02-27T04:43:42.707Z,76.56
2023-02-27T04:46:14.716Z,75.75
2023-02-27T04:48:53.352Z,76.74
2023-02-27T04:51:29.491Z,76.13
2023-02-27T04:54:08.684Z,77.04
2023-02-27T04:56:40.557Z,76.76
2023-02-27T04:59:13.608Z,76.78
2023-02-27T05:01:43.287Z,76.32
2023-02-27T05:04:15.723Z,77.22
2023-02-27T05:06:45.893Z,77.25
2023-02-27T05:09:24.079Z,76.53
2023-02-27T05:11:58.807Z,77.25
2023-02-27T05:14:59.678Z,75.92
2023-02-27T05:17:31.848Z,77.16
2023-02-27T05:19:59.227Z,75.46
2023-02-27T05:22:41.112Z,76.99
2023-02-27T05:25:22.626Z,78.22
2023-02-27T05:28:10.766Z,77.52
2023-02-27T05:30:59.190Z,77.22
2023-02-27T05:33:58.035Z,76.55
2023-02-27T05:36:34.613Z,76.58
2023-02-27T05:39:06.672Z,76.49
2023-02-27T05:41:42.966Z,78.10
2023-02-27T05:44:17.475Z,77.91
2023-02-27T05:46:49.753Z,78.27
2023-02-27T05:49:26.128Z,78.57
2023-02-27T05:51:56.858Z,80.76
2023-02-27T05:54:36.224Z,79.45
2023-02-27T05:57:08.613Z,78.04
2023-02-27T05:59:43.744Z,77.00
2023-02-27T06:02:11.613Z,77.10
2023-02-27T06:04:38.807Z,76.90
2023-02-27T06:07:07.483Z,76.70
2023-02-27T06:09:35.480Z,76.48
2023-02-27T06:12:02.153Z,76.36
2023-02-27T06:14:28.761Z,76.23
2023-02-27T06:16:55.464Z,76.95
2023-02-27T06:19:21.958Z,77.19
2023-02-27T06:21:48.946Z,77.19
2023-02-27T06:24:15.476Z,76.02
2023-02-27T06:26:42.015Z,76.06
2023-02-27T06:29:08.429Z,74.93
2023-02-27T06:31:34.913Z,75.50
2023-02-27T06:34:01.333Z,75.58
2023-02-27T06:36:30.032Z,75.59
2023-02-27T06:38:58.081Z,75.55
2023-02-27T06:41:25.452Z,75.96
2023-02-27T06:43:52.014Z,75.74
2023-02-27T06:46:18.548Z,74.85
2023-02-27T06:48:45.509Z,74.78
2023-02-27T06:51:12.049Z,74.59
2023-02-27T06:53:38.523Z,73.35
2023-02-27T06:56:05.485Z,73.11
2023-02-27T06:58:31.853Z,73.61
2023-02-27T07:01:00.228Z,73.90
2023-02-27T07:03:27.054Z,72.94
2023-02-27T07:05:53.417Z,72.60
2023-02-27T07:08:19.923Z,72.29
2023-02-27T07:10:47.205Z,73.19
2023-02-27T07:13:16.822Z,73.02
2023-02-27T07:15:44.656Z,72.06
2023-02-27T07:18:11.213Z,71.60
2023-02-27T07:20:37.614Z,71.27
2023-02-27T07:23:04.140Z,69.81
2023-02-27T07:25:30.674Z,70.13
2023-02-27T07:27:57.116Z,69.77
2023-02-27T07:30:23.561Z,69.64
2023-02-27T07:32:50.613Z,69.36
2023-02-27T07:35:17.185Z,69.89
2023-02-27T07:37:43.971Z,67.80
2023-02-27T07:40:10.900Z,68.51
2023-02-27T07:42:37.451Z,68.24
2023-02-27T07:45:04.742Z,67.62
2023-02-27T07:47:31.640Z,66.55
2023-02-27T07:49:58.066Z,65.74
2023-02-27T07:52:25.253Z,66.17
2023-02-27T07:54:52.336Z,64.14
2023-02-27T07:57:18.848Z,65.77
2023-02-27T07:59:45.322Z,63.52
2023-02-27T08:02:12.346Z,63.32
2023-02-27T08:04:38.818Z,62.95
2023-02-27T08:07:05.674Z,62.48
2023-02-27T08:09:32.380Z,61.64
2023-02-27T08:11:58.829Z,61.78
2023-02-27T08:14:25.439Z,60.99
2023-02-27T08:16:51.926Z,60.52
2023-02-27T08:19:18.453Z,60.90
2023-02-27T08:21:44.807Z,59.78
2023-02-27T08:24:11.259Z,59.06
2023-02-27T08:26:37.805Z,58.45
2023-02-27T08:29:04.361Z,59.00
2023-02-27T08:31:30.903Z,57.95
2023-02-27T08:34:09.432Z,57.85
2023-02-27T08:36:37.710Z,57.50
2023-02-27T08:39:04.918Z,57.65
2023-02-27T08:41:31.364Z,56.98
2023-02-27T08:43:58.052Z,56.19
2023-02-27T08:46:24.878Z,56.35
2023-02-27T08:48:51.576Z,55.59
2023-02-27T08:51:17.990Z,55.75
2023-02-27T08:53:44.422Z,54.76
2023-02-27T08:56:10.920Z,54.41
2023-02-27T08:58:37.451Z,54.95
2023-02-27T09:01:04.170Z,53.98
2023-02-27T09:03:31.383Z,53.42
2023-02-27T09:05:58.146Z,53.12
2023-02-27T09:08:24.815Z,52.84
2023-02-27T09:10:51.312Z,52.94
2023-02-27T09:13:17.825Z,53.25
2023-02-27T09:15:47.611Z,52.40
2023-02-27T09:18:14.000Z,52.11
2023-02-27T09:20:41.483Z,51.80
2023-02-27T09:23:08.230Z,51.43
2023-02-27T09:25:34.889Z,51.17
2023-02-27T09:28:01.521Z,51.46
2023-02-27T09:30:28.032Z,50.46
2023-02-27T09:32:54.532Z,50.92
2023-02-27T09:35:21.772Z,51.46
2023-02-27T09:37:49.479Z,50.88
2023-02-27T09:40:40.328Z,49.49
2023-02-27T09:43:24.046Z,49.43
2023-02-27T09:45:54.925Z,49.29
2023-02-27T09:48:36.472Z,48.82
2023-02-27T09:51:03.496Z,48.98
2023-02-27T09:53:37.289Z,48.46
2023-02-27T09:56:19.227Z,48.60
2023-02-27T09:58:51.274Z,46.95
2023-02-27T10:01:30.128Z,47.44
2023-02-27T10:04:18.928Z,47.56
2023-02-27T10:06:57.793Z,47.14
2023-02-27T10:09:34.281Z,47.08
2023-02-27T10:13:55.725Z,47.31
2023-02-27T10:16:23.246Z,45.75
2023-02-27T10:19:05.984Z,46.27
2023-02-27T10:21:39.704Z,46.28
2023-02-27T10:24:26.389Z,47.10
2023-02-27T10:26:55.121Z,45.75
2023-02-27T10:29:36.501Z,45.71
2023-02-27T10:32:10.385Z,46.60
2023-02-27T10:34:39.579Z,45.25
2023-02-27T10:37:07.376Z,44.46
2023-02-27T10:39:51.601Z,44.89
2023-02-27T10:42:18.980Z,45.49
2023-02-27T10:44:46.123Z,44.47
2023-02-27T10:47:16.375Z,44.63
2023-02-27T10:49:44.120Z,44.64
2023-02-27T10:52:13.606Z,43.82
2023-02-27T10:54:42.052Z,44.01
2023-02-27T10:57:30.540Z,44.30
2023-02-27T11:00:05.800Z,44.09
2023-02-27T11:02:39.637Z,43.84
2023-02-27T11:05:22.752Z,43.57
2023-02-27T11:07:49.479Z,42.63
2023-02-27T11:10:19.761Z,42.55
2023-02-27T11:13:21.523Z,42.63
2023-02-27T11:16:07.298Z,43.05
2023-02-27T11:18:35.007Z,42.22
2023-02-27T11:21:19.984Z,42.36
2023-02-27T11:23:58.961Z,42.50
2023-02-27T11:26:36.154Z,42.01
2023-02-27T11:29:08.783Z,41.56
2023-02-27T11:31:37.787Z,41.43
2023-02-27T11:34:05.965Z,40.90
2023-02-27T11:36:39.955Z,41.59
2023-02-27T11:39:07.076Z,41.37
2023-02-27T11:41:34.571Z,40.80
2023-02-27T11:44:05.590Z,40.85
2023-02-27T11:46:46.317Z,41.41
2023-02-27T11:49:41.585Z,41.87
2023-02-27T11:52:28.768Z,41.44
2023-02-27T11:54:59.052Z,41.69
2023-02-27T11:57:38.517Z,40.53
2023-02-27T12:00:18.184Z,40.89
2023-02-27T12:02:55.277Z,41.31
2023-02-27T12:05:50.161Z,41.31
2023-02-27T12:08:38.025Z,41.02
2023-02-27T12:11:20.668Z,40.29
2023-02-27T12:13:53.334Z,40.28
2023-02-27T12:16:32.265Z,39.67
2023-02-27T12:19:20.367Z,40.20
2023-02-27T12:21:54.504Z,38.79
2023-02-27T12:24:27.048Z,40.48
2023-02-27T12:27:11.544Z,41.00
2023-02-27T12:29:59.420Z,40.33
2023-02-27T12:32:42.220Z,39.71
2023-02-27T12:35:43.664Z,39.08
2023-02-27T12:38:14.976Z,39.10
2023-02-27T12:40:59.727Z,38.57
2023-02-27T12:43:46.504Z,38.94
2023-02-27T12:46:22.901Z,38.24
2023-02-27T12:48:58.651Z,39.22
2023-02-27T12:51:28.568Z,37.94
2023-02-27T12:54:05.367Z,38.06
2023-02-27T12:56:50.266Z,38.31
2023-02-27T12:59:51.429Z,38.10
2023-02-27T13:02:36.046Z,36.83
2023-02-27T13:05:29.852Z,37.32
2023-02-27T13:08:08.370Z,37.98
2023-02-27T13:10:45.465Z,36.70
2023-02-27T13:13:36.196Z,36.32
2023-02-27T13:16:15.614Z,37.10
2023-02-27T13:18:56.888Z,36.31
2023-02-27T13:21:51.121Z,37.14
2023-02-27T13:24:26.392Z,36.89
2023-02-27T13:26:58.897Z,38.11
2023-02-27T13:29:49.173Z,36.99
2023-02-27T13:32:44.760Z,36.95
2023-02-27T13:35:48.846Z,36.89
2023-02-27T13:38:54.414Z,36.34
2023-02-27T13:41:20.979Z,37.18
2023-02-27T13:43:52.575Z,36.88
2023-02-27T13:46:29.703Z,37.92
2023-02-27T13:49:05.289Z,38.07
2023-02-27T13:51:34.986Z,38.17
2023-02-27T13:54:13.410Z,37.54
2023-02-27T13:56:59.071Z,37.72
2023-02-27T13:59:40.396Z,37.31
2023-02-27T14:02:09.860Z,36.30
2023-02-27T14:04:46.605Z,35.96
2023-02-27T14:07:21.262Z,36.38
2023-02-27T14:09:51.820Z,35.81
2023-02-27T14:12:30.954Z,36.29
2023-02-27T14:15:26.349Z,36.58
2023-02-27T14:18:12.314Z,36.68
2023-02-27T14:20:40.603Z,35.97
2023-02-27T14:23:20.680Z,37.65
2023-02-27T14:25:54.203Z,36.13
2023-02-27T14:28:46.996Z,35.02
2023-02-27T14:31:26.357Z,34.76
2023-02-27T14:33:55.737Z,36.19
2023-02-27T14:36:25.973Z,35.71
2023-02-27T14:38:57.849Z,37.07
2023-02-27T14:41:27.310Z,35.57
2023-02-27T14:43:57.389Z,36.27
2023-02-27T14:46:30.773Z,35.20
2023-02-27T14:49:03.629Z,34.53
2023-02-27T14:51:36.944Z,34.76
2023-02-27T14:54:13.902Z,34.20
2023-02-27T14:56:41.328Z,34.95
2023-02-27T14:59:25.353Z,35.88
2023-02-27T15:01:53.547Z,35.42
2023-02-27T15:04:23.385Z,34.53
2023-02-27T15:06:52.166Z,34.92
2023-02-27T15:09:30.845Z,34.48
2023-02-27T15:12:03.936Z,33.64
2023-02-27T15:14:37.213Z,35.15
2023-02-27T15:17:14.405Z,35.08
2023-02-27T15:19:47.854Z,34.80
2023-02-27T15:22:28.936Z,33.43
2023-02-27T15:25:04.714Z,33.98
2023-02-27T15:27:32.030Z,35.44
2023-02-27T15:30:00.452Z,35.31
2023-02-27T15:32:30.807Z,33.75
2023-02-27T15:35:00.866Z,35.01
2023-02-27T15:37:31.606Z,33.77
2023-02-27T15:39:59.759Z,33.64
2023-02-27T15:42:30.346Z,33.75
2023-02-27T15:44:58.442Z,34.59
2023-02-27T15:47:28.222Z,32.96
2023-02-27T15:50:06.930Z,32.58
2023-02-27T15:52:41.605Z,32.98
2023-02-27T15:55:16.560Z,33.28
2023-02-27T15:57:56.642Z,32.75
2023-02-27T16:00:30.958Z,33.01
2023-02-27T16:02:58.517Z,34.09
2023-02-27T16:05:30.400Z,35.21
2023-02-27T16:07:56.908Z,37.52
2023-02-27T16:10:28.105Z,36.86
2023-02-27T16:12:55.245Z,37.89
2023-02-27T16:15:30.002Z,37.81
2023-02-27T16:18:00.821Z,39.68
2023-02-27T16:20:41.814Z,40.92
2023-02-27T16:23:29.275Z,39.00
2023-02-27T16:26:30.864Z,39.70
2023-02-27T16:29:04.003Z,40.40
2023-02-27T16:31:32.067Z,39.58
2023-02-27T16:34:00.999Z,39.59
2023-02-27T16:36:32.286Z,40.00
2023-02-27T16:38:59.655Z,39.64
2023-02-27T16:41:27.320Z,40.76
2023-02-27T16:43:54.090Z,40.76
2023-02-27T16:46:22.122Z,40.81
2023-02-27T16:48:51.126Z,40.77
2023-02-27T16:51:21.391Z,41.05
2023-02-27T16:53:48.184Z,40.27
2023-02-27T16:56:16.257Z,41.02
2023-02-27T16:58:44.676Z,41.82
2023-02-27T17:01:13.874Z,41.65
2023-02-27T17:03:41.726Z,41.91
2023-02-27T17:06:09.523Z,41.96
2023-02-27T17:08:36.055Z,42.46
2023-02-27T17:11:04.172Z,42.49
2023-02-27T17:13:32.137Z,42.77
2023-02-27T17:16:06.335Z,42.55
2023-02-27T17:18:33.216Z,43.54
2023-02-27T17:21:01.038Z,42.92
2023-02-27T17:23:27.663Z,42.42
2023-02-27T17:25:54.595Z,43.58
2023-02-27T17:28:22.494Z,43.84
2023-02-27T17:30:50.253Z,44.54
2023-02-27T17:33:17.382Z,44.38
2023-02-27T17:35:43.831Z,43.76
2023-02-27T17:38:10.334Z,44.00
2023-02-27T17:40:37.687Z,44.15
2023-02-27T17:43:04.395Z,43.93
2023-02-27T17:45:31.020Z,44.50
2023-02-27T17:47:57.456Z,44.49
2023-02-27T17:50:23.937Z,44.85
2023-02-27T17:52:50.430Z,45.01
2023-02-27T17:55:17.027Z,44.94
2023-02-27T17:57:43.612Z,45.21
2023-02-27T18:00:16.153Z,45.68
2023-02-27T18:02:45.637Z,45.06
2023-02-27T18:05:12.217Z,45.52
2023-02-27T18:07:39.478Z,45.67
2023-02-27T18:10:08.934Z,46.17
2023-02-27T18:12:36.682Z,46.73
2023-02-27T18:15:05.766Z,46.46
2023-02-27T18:17:32.776Z,46.57
2023-02-27T18:19:59.769Z,46.14
2023-02-27T18:22:26.853Z,46.31
2023-02-27T18:24:54.589Z,46.56
2023-02-27T18:27:22.270Z,47.04
2023-02-27T18:29:50.068Z,46.69
2023-02-27T18:32:17.585Z,47.22
2023-02-27T18:34:44.473Z,46.99
2023-02-27T18:37:11.368Z,47.47
2023-02-27T18:39:38.169Z,47.39
2023-02-27T18:42:06.800Z,47.38
2023-02-27T18:44:33.721Z,47.18
2023-02-27T18:47:00.515Z,47.38
2023-02-27T18:49:27.597Z,48.01
2023-02-27T18:51:54.077Z,47.39
2023-02-27T18:54:20.846Z,47.80
2023-02-27T18:56:50.816Z,47.64
2023-02-27T18:59:17.232Z,48.22
2023-02-27T19:01:43.964Z,48.25
2023-02-27T19:04:11.075Z,48.16
2023-02-27T19:06:40.880Z,49.03
2023-02-27T19:09:10.082Z,48.83
2023-02-27T19:11:36.961Z,48.64
2023-02-27T19:14:06.595Z,49.26
2023-02-27T19:16:33.751Z,49.33
2023-02-27T19:19:01.642Z,49.37
2023-02-27T19:21:29.103Z,49.92
2023-02-27T19:23:56.172Z,50.12
2023-02-27T19:26:24.649Z,50.16
2023-02-27T19:28:53.632Z,50.42
2023-02-27T19:31:21.548Z,50.41
2023-02-27T19:33:48.282Z,50.49
2023-02-27T19:36:17.846Z,50.91
2023-02-27T19:38:44.539Z,51.12
2023-02-27T19:41:14.024Z,51.54
2023-02-27T19:43:41.479Z,51.66
2023-02-27T19:46:11.129Z,52.18
2023-02-27T19:48:38.652Z,52.41
2023-02-27T19:51:06.630Z,52.96
2023-02-27T19:53:35.826Z,53.03
2023-02-27T19:56:05.325Z,54.10
2023-02-27T19:58:33.519Z,54.33
2023-02-27T20:01:00.684Z,53.75
2023-02-27T20:03:28.943Z,54.14
2023-02-27T20:05:55.850Z,54.03
2023-02-27T20:08:22.790Z,54.21
2023-02-27T20:10:59.905Z,54.55
2023-02-27T20:13:27.455Z,55.10
2023-02-27T20:15:58.572Z,55.04
2023-02-27T20:18:27.382Z,55.21
2023-02-27T20:21:02.465Z,55.08
2023-02-27T20:23:29.981Z,55.18
2023-02-27T20:25:56.618Z,55.11
2023-02-27T20:28:23.570Z,55.96
2023-02-27T20:30:50.319Z,55.69
2023-02-27T20:33:16.810Z,56.16
2023-02-27T20:35:43.304Z,56.51
2023-02-27T20:38:10.116Z,56.26
2023-02-27T20:40:36.751Z,56.28
2023-02-27T20:43:04.153Z,56.52
2023-02-27T20:45:30.765Z,57.14
2023-02-27T20:47:57.319Z,56.73
2023-02-27T20:50:23.837Z,57.10
2023-02-27T20:52:53.633Z,57.04
2023-02-27T20:55:20.394Z,58.13
2023-02-27T20:57:46.857Z,57.90
2023-02-27T21:00:14.574Z,58.08
2023-02-27T21:02:41.209Z,58.14
2023-02-27T21:05:08.018Z,58.23
2023-02-27T21:07:34.591Z,58.49
2023-02-27T21:10:01.156Z,58.52
2023-02-27T21:12:27.726Z,58.76
2023-02-27T21:14:55.869Z,59.05
2023-02-27T21:17:24.818Z,58.99
2023-02-27T21:19:51.740Z,60.00
2023-02-27T21:22:18.454Z,59.84
2023-02-27T21:24:46.833Z,60.00
2023-02-27T21:27:13.445Z,59.90
2023-02-27T21:29:40.203Z,59.92
2023-02-27T21:32:07.407Z,60.68
2023-02-27T21:34:34.066Z,60.45
2023-02-27T21:37:02.626Z,60.65
2023-02-27T21:39:29.314Z,60.67
2023-02-27T21:41:56.146Z,59.78
2023-02-27T21:44:26.594Z,59.50
2023-02-27T21:46:54.076Z,60.66
2023-02-27T21:49:24.509Z,60.32
2023-02-27T21:51:51.194Z,61.33
2023-02-27T21:54:18.907Z,61.04
2023-02-27T21:56:47.294Z,61.68
2023-02-27T21:59:15.181Z,61.56
2023-02-27T22:01:46.920Z,61.38
2023-02-27T22:04:15.338Z,61.91
2023-02-27T22:06:41.777Z,60.85
2023-02-27T22:09:08.236Z,62.08
2023-02-27T22:11:35.307Z,61.96
2023-02-27T22:14:02.923Z,62.14
2023-02-27T22:16:29.354Z,61.95
2023-02-27T22:18:55.983Z,61.45
2023-02-27T22:21:25.238Z,61.95
2023-02-27T22:23:52.460Z,61.31
2023-02-27T22:26:21.974Z,61.42
2023-02-27T22:28:48.519Z,62.14
2023-02-27T22:31:21.139Z,62.47
2023-02-27T22:33:50.174Z,62.33
2023-02-27T22:36:35.821Z,62.21
2023-02-27T22:39:03.019Z,62.48
2023-02-27T22:41:32.480Z,63.33
2023-02-27T22:44:00.311Z,63.53
2023-02-27T22:46:29.666Z,64.27
2023-02-27T22:48:58.463Z,64.00
2023-02-27T22:51:27.750Z,64.02
2023-02-27T22:53:56.524Z,64.36
2023-02-27T22:56:23.907Z,64.53
2023-02-27T22:58:50.956Z,64.48
2023-02-27T23:01:21.578Z,64.80
2023-02-27T23:03:51.152Z,65.24
2023-02-27T23:06:20.647Z,66.47
2023-02-27T23:08:47.999Z,66.68
2023-02-27T23:11:15.994Z,66.42
2023-02-27T23:13:42.631Z,66.71
2023-02-27T23:16:13.670Z,68.01
2023-02-27T23:18:43.237Z,67.41
2023-02-27T23:21:10.213Z,67.10
2023-02-27T23:23:36.871Z,66.34
2023-02-27T23:26:04.232Z,66.55
2023-02-27T23:28:30.775Z,66.55
2023-02-27T23:30:58.304Z,67.73
2023-02-27T23:33:26.171Z,67.47
2023-02-27T23:35:53.096Z,68.79
2023-02-27T23:38:19.660Z,68.25
2023-02-27T23:40:46.433Z,68.13
2023-02-27T23:43:32.926Z,69.08
2023-02-27T23:46:05.806Z,69.62
2023-02-27T23:48:32.381Z,70.29
2023-02-27T23:51:02.593Z,71.85
2023-02-27T23:53:30.248Z,70.98
2023-02-27T23:55:56.856Z,70.78
2023-02-27T23:58:23.483Z,71.21
